Time;durP1;ratioP1;P1;durP2;ratioP2;P2;SDS_P1;SDS_P2;PMS_P1;PMS_P2;Temp;Humidity;BMP_temperature;BMP_pressure;BME280_temperature;BME280_humidity;BME280_pressure;Samples;Min_cycle;Max_cycle;Signal;HPM_P1;HPM_P2
2021/03/04 00:01:16;;;;;;;100.00;64.90;;;10.00;99.90;;;;;;5061641;28;20545;-75
2021/03/04 00:03:43;;;;;;;109.18;65.05;;;10.00;99.90;;;;;;5053721;28;20091;-75
2021/03/04 00:06:10;;;;;;;104.20;64.47;;;10.00;99.90;;;;;;5053757;28;20081;-75
2021/03/04 00:08:36;;;;;;;99.28;63.88;;;10.00;99.90;;;;;;5054426;28;20654;-76
2021/03/04 00:11:03;;;;;;;112.70;65.57;;;10.00;99.90;;;;;;5056709;28;20076;-76
2021/03/04 00:13:29;;;;;;;108.60;64.40;;;10.00;99.90;;;;;;5064944;28;20076;-76
2021/03/04 00:15:55;;;;;;;102.28;63.58;;;9.90;99.90;;;;;;5067216;28;20124;-75
2021/03/04 00:18:22;;;;;;;107.30;65.68;;;10.00;99.90;;;;;;5066429;28;20056;-76
2021/03/04 00:20:52;;;;;;;104.22;64.20;;;10.00;99.90;;;;;;5070762;28;20137;-75
2021/03/04 00:23:18;;;;;;;106.20;64.93;;;10.00;99.90;;;;;;5067452;28;20048;-76
2021/03/04 00:25:45;;;;;;;110.15;69.45;;;10.00;99.90;;;;;;5073569;28;20139;-76
2021/03/04 00:28:11;;;;;;;108.60;68.88;;;10.00;99.90;;;;;;5067869;28;20259;-76
2021/03/04 00:30:38;;;;;;;109.07;66.78;;;10.00;99.90;;;;;;5073387;28;20091;-76
2021/03/04 00:33:04;;;;;;;103.78;63.80;;;10.00;99.90;;;;;;5074198;28;20509;-75
2021/03/04 00:35:31;;;;;;;111.35;68.88;;;10.00;99.90;;;;;;5073484;28;20524;-77
2021/03/04 00:37:58;;;;;;;106.00;65.55;;;9.90;99.90;;;;;;5061723;28;20535;-75
2021/03/04 00:40:24;;;;;;;102.63;66.75;;;9.90;99.90;;;;;;5055208;28;20123;-75
2021/03/04 00:42:51;;;;;;;112.78;67.30;;;9.90;99.90;;;;;;5053356;28;20132;-74
2021/03/04 00:45:20;;;;;;;108.32;66.80;;;9.90;99.90;;;;;;5053283;28;20080;-76
2021/03/04 00:47:47;;;;;;;110.78;65.28;;;9.90;99.90;;;;;;5053830;28;20148;-77
2021/03/04 00:50:16;;;;;;;99.45;64.38;;;9.90;99.90;;;;;;5064174;28;20426;-76
2021/03/04 00:52:42;;;;;;;105.80;64.40;;;9.90;99.90;;;;;;5060987;28;20080;-76
2021/03/04 00:55:11;;;;;;;107.70;64.07;;;10.00;99.90;;;;;;5062707;28;20119;-76
2021/03/04 00:57:37;;;;;;;105.80;63.85;;;10.00;99.90;;;;;;5068013;28;20048;-76
2021/03/04 01:00:07;;;;;;;111.20;68.60;;;10.00;99.90;;;;;;5073743;28;20127;-76
2021/03/04 01:02:33;;;;;;;109.13;69.20;;;10.00;99.90;;;;;;5057689;28;20055;-77
2021/03/04 01:05:00;;;;;;;108.40;67.63;;;9.90;99.90;;;;;;5064269;28;20068;-76
2021/03/04 01:07:26;;;;;;;111.70;67.53;;;9.90;99.90;;;;;;5066002;28;20051;-76
2021/03/04 01:09:53;;;;;;;111.53;68.30;;;9.90;99.90;;;;;;5065539;28;20083;-76
2021/03/04 01:12:20;;;;;;;104.05;63.35;;;9.90;99.90;;;;;;5065418;28;20091;-76
2021/03/04 01:14:46;;;;;;;104.88;66.53;;;9.90;99.90;;;;;;5072334;28;20044;-75
2021/03/04 01:17:14;;;;;;;102.03;63.38;;;9.90;99.90;;;;;;5071611;28;20576;-77
2021/03/04 01:19:40;;;;;;;99.28;63.20;;;9.80;99.90;;;;;;5071346;28;20049;-77
2021/03/04 01:22:07;;;;;;;100.88;64.28;;;9.90;99.90;;;;;;5068761;28;20123;-76
2021/03/04 01:24:33;;;;;;;105.90;65.63;;;9.90;99.90;;;;;;5070779;28;20154;-77
2021/03/04 01:27:02;;;;;;;104.28;65.45;;;9.80;99.90;;;;;;5071015;28;20095;-75
2021/03/04 01:29:29;;;;;;;105.95;66.32;;;9.90;99.90;;;;;;5051504;28;20124;-76
2021/03/04 01:31:56;;;;;;;101.25;66.53;;;9.90;99.90;;;;;;5052463;28;20049;-75
2021/03/04 01:34:22;;;;;;;104.57;65.35;;;9.80;99.90;;;;;;5053522;28;20099;-76
2021/03/04 01:36:49;;;;;;;109.22;66.68;;;9.90;99.90;;;;;;5053100;28;20088;-76
2021/03/04 01:39:15;;;;;;;108.32;66.43;;;9.90;99.90;;;;;;5053198;28;20080;-76
2021/03/04 01:41:42;;;;;;;101.15;66.07;;;9.90;99.90;;;;;;5052408;28;20186;-75
2021/03/04 01:44:08;;;;;;;115.00;69.22;;;9.90;99.90;;;;;;5052022;28;20081;-76
2021/03/04 01:46:35;;;;;;;111.95;68.55;;;9.90;99.90;;;;;;5052066;28;20138;-76
2021/03/04 01:49:02;;;;;;;105.93;69.07;;;10.00;99.90;;;;;;5052164;28;20259;-75
2021/03/04 01:51:29;;;;;;;113.57;69.25;;;10.00;99.90;;;;;;5052031;28;20053;-76
2021/03/04 01:53:56;;;;;;;116.05;72.20;;;9.90;99.90;;;;;;5051842;28;20088;-75
2021/03/04 01:56:23;;;;;;;118.82;72.45;;;10.00;99.90;;;;;;5051553;28;20044;-75
2021/03/04 01:58:50;;;;;;;107.88;71.32;;;10.10;99.90;;;;;;5052213;28;20140;-75
2021/03/04 02:01:16;;;;;;;119.28;70.75;;;10.10;99.90;;;;;;5052133;28;20048;-75
2021/03/04 02:03:43;;;;;;;113.43;74.75;;;10.20;99.90;;;;;;5051764;28;20052;-76
2021/03/04 02:06:10;;;;;;;112.93;72.25;;;10.20;99.90;;;;;;5051310;28;20132;-75
2021/03/04 02:08:42;;;;;;;122.75;74.20;;;10.20;99.90;;;;;;5052257;28;20080;-76
2021/03/04 02:11:15;;;;;;;119.18;73.38;;;10.20;99.90;;;;;;5052295;28;20067;-75
2021/03/04 02:13:46;;;;;;;113.85;75.30;;;10.20;99.90;;;;;;5051912;28;20048;-74
2021/03/04 02:16:17;;;;;;;124.20;75.00;;;10.20;99.90;;;;;;5051901;28;20049;-76
2021/03/04 02:18:48;;;;;;;123.90;76.90;;;10.20;99.90;;;;;;5052643;28;20053;-76
2021/03/04 02:21:29;;;;;;;120.55;76.68;;;10.20;99.90;;;;;;5052943;28;20084;-77
2021/03/04 02:24:26;;;;;;;116.88;74.25;;;10.10;99.90;;;;;;5052241;28;20096;-76
2021/03/04 02:27:12;;;;;;;120.63;73.57;;;10.10;99.90;;;;;;5052581;28;20045;-76
2021/03/04 02:29:44;;;;;;;117.50;73.47;;;10.10;99.90;;;;;;5053438;28;20522;-76
2021/03/04 02:32:11;;;;;;;122.83;75.40;;;10.00;99.90;;;;;;5054160;28;20064;-76
2021/03/04 02:42:20;;;;;;;133.00;78.72;;;9.70;99.90;;;;;;5058978;28;20537;-75
2021/03/04 02:44:48;;;;;;;125.13;74.80;;;9.60;99.90;;;;;;5051877;28;20078;-76
2021/03/04 02:47:15;;;;;;;122.72;75.15;;;9.60;99.90;;;;;;5051541;28;20080;-76
2021/03/04 02:49:43;;;;;;;122.53;75.07;;;9.50;99.90;;;;;;5059306;28;20092;-76
2021/03/04 02:52:10;;;;;;;112.63;71.38;;;9.50;99.90;;;;;;5074488;28;20045;-76
2021/03/04 02:54:38;;;;;;;124.28;75.85;;;9.50;99.90;;;;;;5073667;28;20044;-75
2021/03/04 02:57:07;;;;;;;119.47;75.50;;;9.40;99.90;;;;;;5063628;28;20084;-75
2021/03/04 02:59:34;;;;;;;127.75;77.97;;;9.40;99.90;;;;;;5051867;28;20095;-75
2021/03/04 03:02:01;;;;;;;121.85;78.00;;;9.40;99.90;;;;;;5051812;28;20140;-75
2021/03/04 03:04:29;;;;;;;123.30;77.47;;;9.40;99.90;;;;;;5051223;28;20132;-75
2021/03/04 03:06:56;;;;;;;131.23;77.95;;;9.40;99.90;;;;;;5050928;28;20176;-75
2021/03/04 03:09:23;;;;;;;126.88;76.97;;;9.30;99.90;;;;;;5051013;28;20128;-75
2021/03/04 03:11:52;;;;;;;124.53;77.28;;;9.30;99.90;;;;;;5052323;28;20136;-76
2021/03/04 03:14:19;;;;;;;132.57;81.63;;;9.30;99.90;;;;;;5051803;28;20179;-76
2021/03/04 03:16:46;;;;;;;130.45;82.20;;;9.20;99.90;;;;;;5050967;28;20084;-76
2021/03/04 03:19:13;;;;;;;136.15;82.22;;;9.20;99.90;;;;;;5051392;28;20132;-76
2021/03/04 03:21:39;;;;;;;132.32;79.25;;;9.10;99.90;;;;;;5054361;28;20167;-76
2021/03/04 03:24:07;;;;;;;141.35;85.45;;;9.10;99.90;;;;;;5054822;28;20099;-76
2021/03/04 03:26:33;;;;;;;143.73;83.70;;;8.90;99.90;;;;;;5054249;28;20519;-76
2021/03/04 03:29:01;;;;;;;141.15;83.95;;;8.70;99.90;;;;;;5054979;28;20198;-76
2021/03/04 03:31:29;;;;;;;138.35;83.15;;;8.60;99.90;;;;;;5055480;28;20109;-76
2021/03/04 03:33:58;;;;;;;139.85;80.85;;;8.60;99.90;;;;;;5055310;28;20084;-75
2021/03/04 03:36:25;;;;;;;138.77;80.85;;;8.70;99.90;;;;;;5054844;28;20133;-75
2021/03/04 03:38:52;;;;;;;145.38;82.55;;;8.70;99.90;;;;;;5055266;28;20514;-76
2021/03/04 03:41:20;;;;;;;133.93;78.68;;;8.60;99.90;;;;;;5055082;28;20100;-75
2021/03/04 03:43:48;;;;;;;138.75;77.60;;;8.70;99.90;;;;;;5055412;28;20080;-76
2021/03/04 03:46:15;;;;;;;139.88;79.00;;;8.70;99.90;;;;;;5054609;28;20076;-75
2021/03/04 03:48:43;;;;;;;132.63;79.38;;;8.70;99.90;;;;;;5055718;28;20084;-76
2021/03/04 03:51:11;;;;;;;134.82;79.35;;;8.60;99.90;;;;;;5054726;28;20056;-75
2021/03/04 03:53:37;;;;;;;133.60;79.93;;;8.70;99.90;;;;;;5054245;28;20511;-76
2021/03/04 03:56:04;;;;;;;128.80;76.32;;;8.70;99.90;;;;;;5053865;28;20045;-76
2021/03/04 03:58:31;;;;;;;130.73;75.80;;;8.70;99.90;;;;;;5053960;28;20088;-74
2021/03/04 04:00:58;;;;;;;128.63;75.10;;;8.80;99.90;;;;;;5053984;28;20132;-76
2021/03/04 04:03:25;;;;;;;129.32;75.82;;;8.80;99.90;;;;;;5053926;28;20052;-75
2021/03/04 04:05:52;;;;;;;126.13;77.03;;;8.80;99.90;;;;;;5053451;28;20136;-75
2021/03/04 04:08:21;;;;;;;125.63;73.57;;;8.90;99.90;;;;;;5053688;28;20087;-75
2021/03/04 04:10:48;;;;;;;123.35;71.82;;;9.00;99.90;;;;;;5053611;28;20053;-76
2021/03/04 04:13:15;;;;;;;115.18;70.80;;;9.00;99.90;;;;;;5053779;28;20132;-76
2021/03/04 04:15:42;;;;;;;124.50;71.03;;;9.00;99.90;;;;;;5053825;28;20076;-74
2021/03/04 04:18:09;;;;;;;120.88;72.05;;;9.10;99.90;;;;;;5053900;28;20190;-75
2021/03/04 04:20:36;;;;;;;125.15;73.13;;;9.00;99.90;;;;;;5053690;28;20570;-76
2021/03/04 04:23:03;;;;;;;130.23;74.30;;;8.90;99.90;;;;;;5053660;28;20128;-76
2021/03/04 04:25:30;;;;;;;118.63;71.25;;;9.00;99.90;;;;;;5053537;28;20472;-75
2021/03/04 04:27:57;;;;;;;121.57;72.13;;;8.90;99.90;;;;;;5053314;28;20443;-76
2021/03/04 04:30:25;;;;;;;120.82;71.78;;;8.90;99.90;;;;;;5053877;28;20428;-77
2021/03/04 04:32:53;;;;;;;128.23;72.82;;;8.90;99.90;;;;;;5052326;28;20133;-76
2021/03/04 04:35:20;;;;;;;120.93;71.60;;;9.00;99.90;;;;;;5053179;28;20475;-76
2021/03/04 04:37:46;;;;;;;131.15;75.13;;;9.00;99.90;;;;;;5053271;28;20100;-76
2021/03/04 04:40:13;;;;;;;125.25;75.88;;;9.00;99.90;;;;;;5053374;28;20164;-76
2021/03/04 04:42:40;;;;;;;124.15;73.50;;;8.90;99.90;;;;;;5053527;28;20507;-77
2021/03/04 04:45:08;;;;;;;132.10;74.15;;;8.90;99.90;;;;;;5053095;28;20128;-77
2021/03/04 04:47:35;;;;;;;116.72;73.55;;;9.00;99.90;;;;;;5052914;28;20136;-76
2021/03/04 04:50:02;;;;;;;128.40;73.70;;;9.00;99.90;;;;;;5053470;28;20056;-76
2021/03/04 04:52:29;;;;;;;129.63;76.28;;;9.10;99.90;;;;;;5055226;28;20128;-76
2021/03/04 04:54:55;;;;;;;128.52;76.53;;;9.00;99.90;;;;;;5053810;28;20056;-76
2021/03/04 04:57:22;;;;;;;120.18;75.93;;;9.00;99.90;;;;;;5053093;28;20140;-77
2021/03/04 04:59:50;;;;;;;121.15;74.57;;;9.00;99.90;;;;;;5053497;28;20052;-76
2021/03/04 05:02:16;;;;;;;117.82;73.85;;;9.10;99.90;;;;;;5053512;28;20084;-75
2021/03/04 05:04:43;;;;;;;126.30;77.18;;;9.20;99.90;;;;;;5053601;28;20100;-76
2021/03/04 05:07:09;;;;;;;126.15;74.18;;;9.20;99.90;;;;;;5052842;28;20136;-76
2021/03/04 05:09:36;;;;;;;126.90;76.20;;;9.20;99.90;;;;;;5052890;28;20049;-76
2021/03/04 05:12:02;;;;;;;129.50;75.22;;;9.30;99.90;;;;;;5052630;28;20132;-77
2021/03/04 05:14:29;;;;;;;117.70;74.25;;;9.30;99.90;;;;;;5052947;28;20419;-76
2021/03/04 05:16:56;;;;;;;118.50;73.90;;;9.40;99.90;;;;;;5051993;28;20315;-76
2021/03/04 05:19:23;;;;;;;114.72;75.07;;;9.40;99.90;;;;;;5052314;28;20508;-76
2021/03/04 05:21:49;;;;;;;126.25;74.82;;;9.40;99.90;;;;;;5052320;28;20049;-75
2021/03/04 05:24:15;;;;;;;115.60;72.30;;;9.40;99.90;;;;;;5052321;28;20095;-76
2021/03/04 05:26:42;;;;;;;125.07;74.70;;;9.40;99.90;;;;;;5051922;28;20468;-76
2021/03/04 05:29:08;;;;;;;118.03;73.78;;;9.40;99.90;;;;;;5052243;28;20141;-75
2021/03/04 05:31:35;;;;;;;122.95;75.40;;;9.40;99.90;;;;;;5052009;28;20132;-76
2021/03/04 05:34:02;;;;;;;128.60;77.93;;;9.30;99.90;;;;;;5052169;28;20533;-76
2021/03/04 05:36:28;;;;;;;131.00;80.80;;;9.30;99.90;;;;;;5051731;28;20080;-76
2021/03/04 05:38:55;;;;;;;127.15;78.63;;;9.30;99.90;;;;;;5052061;28;20199;-76
2021/03/04 05:41:23;;;;;;;130.93;79.13;;;9.20;99.90;;;;;;5051684;28;20049;-76
2021/03/04 05:43:50;;;;;;;134.40;78.22;;;9.20;99.90;;;;;;5051801;28;20085;-76
2021/03/04 05:46:20;;;;;;;130.40;79.45;;;9.20;99.90;;;;;;5051404;28;20095;-76
2021/03/04 05:48:49;;;;;;;133.20;79.00;;;9.20;99.90;;;;;;5051676;28;20527;-76
2021/03/04 05:51:23;;;;;;;139.38;82.60;;;9.20;99.90;;;;;;5051767;28;20055;-76
2021/03/04 05:53:54;;;;;;;129.95;79.28;;;9.10;99.90;;;;;;5051773;28;20052;-75
2021/03/04 05:56:22;;;;;;;130.40;79.35;;;9.20;99.90;;;;;;5051427;28;20045;-76
2021/03/04 05:58:49;;;;;;;144.52;81.55;;;9.10;99.90;;;;;;5051754;28;20146;-76
2021/03/04 06:01:17;;;;;;;134.60;81.20;;;9.00;99.90;;;;;;5051959;28;20084;-76
2021/03/04 06:03:44;;;;;;;138.68;81.18;;;9.10;99.90;;;;;;5051884;28;20091;-76
2021/03/04 06:06:11;;;;;;;132.25;81.93;;;9.10;99.90;;;;;;5050369;28;20085;-76
2021/03/04 06:08:39;;;;;;;140.95;84.78;;;9.10;99.90;;;;;;5051301;28;20131;-77
2021/03/04 06:11:06;;;;;;;137.68;82.35;;;9.20;99.90;;;;;;5051628;28;20053;-77
2021/03/04 06:13:33;;;;;;;130.73;75.15;;;9.20;99.90;;;;;;5051809;28;20474;-76
2021/03/04 06:16:00;;;;;;;129.27;75.68;;;9.10;99.90;;;;;;5051090;28;20052;-75
2021/03/04 06:18:38;;;;;;;133.88;78.72;;;9.00;99.90;;;;;;5051265;28;20109;-75
2021/03/04 06:21:15;;;;;;;137.88;78.70;;;9.00;99.90;;;;;;5051188;28;20059;-75
2021/03/04 06:23:43;;;;;;;126.47;76.70;;;9.00;99.90;;;;;;5051158;28;20128;-76
2021/03/04 06:26:09;;;;;;;133.20;80.22;;;8.90;99.90;;;;;;5051130;28;20131;-75
2021/03/04 06:28:35;;;;;;;144.20;83.43;;;8.90;99.90;;;;;;5051432;28;20127;-75
2021/03/04 06:31:02;;;;;;;150.70;81.47;;;8.90;99.90;;;;;;5051089;28;20128;-75
2021/03/04 06:33:35;;;;;;;139.93;79.82;;;8.90;99.90;;;;;;5051300;28;20088;-75
2021/03/04 06:36:12;;;;;;;143.43;83.32;;;8.90;99.90;;;;;;5050951;28;20051;-75
2021/03/04 06:38:39;;;;;;;141.18;81.82;;;8.90;99.90;;;;;;5051170;28;20045;-75
2021/03/04 06:41:18;;;;;;;147.15;84.78;;;8.90;99.90;;;;;;5050861;28;20057;-75
2021/03/04 06:43:44;;;;;;;149.60;88.85;;;8.80;99.90;;;;;;5051002;28;20057;-75
2021/03/04 06:46:11;;;;;;;143.77;85.72;;;8.70;99.90;;;;;;5051037;28;20137;-75
2021/03/04 06:48:37;;;;;;;147.80;87.85;;;8.70;99.90;;;;;;5051310;28;20132;-76
2021/03/04 06:51:05;;;;;;;158.07;89.05;;;8.60;99.90;;;;;;5051675;28;20488;-75
2021/03/04 06:53:32;;;;;;;144.23;83.47;;;8.50;99.90;;;;;;5051755;28;20427;-74
2021/03/04 06:56:01;;;;;;;151.35;82.60;;;8.40;99.90;;;;;;5054197;28;20049;-75
2021/03/04 06:58:30;;;;;;;151.45;83.45;;;8.20;99.90;;;;;;5056654;28;20052;-75
2021/03/04 07:01:08;;;;;;;141.95;78.05;;;8.00;99.90;;;;;;5055848;28;20136;-77
2021/03/04 07:03:42;;;;;;;141.80;76.20;;;7.90;99.90;;;;;;5055107;28;20053;-76
2021/03/04 07:06:11;;;;;;;137.30;73.85;;;7.90;99.90;;;;;;5053038;28;20124;-77
2021/03/04 07:08:39;;;;;;;134.25;72.35;;;7.90;99.90;;;;;;5074271;28;20136;-76
2021/03/04 07:11:07;;;;;;;138.55;71.38;;;7.90;99.90;;;;;;5074744;28;20800;-79
2021/03/04 07:13:37;;;;;;;129.75;68.95;;;7.80;99.90;;;;;;5074484;28;20079;-76
2021/03/04 07:16:07;;;;;;;140.65;71.00;;;7.60;99.90;;;;;;5074334;28;20426;-78
2021/03/04 07:18:39;;;;;;;133.75;65.85;;;7.50;99.90;;;;;;5074829;28;20052;-79
2021/03/04 07:21:11;;;;;;;133.63;67.53;;;7.50;99.90;;;;;;5074783;28;20059;-76
2021/03/04 07:23:39;;;;;;;129.73;64.82;;;7.40;99.90;;;;;;5074640;28;20052;-78
2021/03/04 07:26:06;;;;;;;130.00;67.18;;;7.50;99.90;;;;;;5074671;28;20147;-78
2021/03/04 07:28:34;;;;;;;128.43;65.95;;;7.50;99.90;;;;;;5094107;28;20045;-77
2021/03/04 07:31:03;;;;;;;132.88;68.78;;;7.50;99.90;;;;;;5098398;28;20170;-77
2021/03/04 07:33:31;;;;;;;142.90;70.75;;;7.50;99.90;;;;;;5095779;28;20047;-77
2021/03/04 07:36:01;;;;;;;131.27;67.22;;;7.50;99.90;;;;;;5077633;28;20041;-77
2021/03/04 07:38:30;;;;;;;131.88;66.03;;;7.60;99.90;;;;;;5075530;28;20053;-78
2021/03/04 07:41:04;;;;;;;133.20;64.90;;;7.50;99.90;;;;;;5074590;28;20087;-77
2021/03/04 07:43:41;;;;;;;138.27;66.60;;;7.40;99.90;;;;;;5074821;28;20052;-78
2021/03/04 07:46:08;;;;;;;132.85;64.10;;;7.30;99.90;;;;;;5074759;28;20462;-78
2021/03/04 07:48:35;;;;;;;131.65;65.00;;;7.40;99.90;;;;;;5074853;28;20072;-78
2021/03/04 07:51:01;;;;;;;127.93;62.58;;;7.40;99.90;;;;;;5074836;28;20132;-78
2021/03/04 07:53:29;;;;;;;120.43;63.65;;;7.50;99.90;;;;;;5075035;28;20547;-78
2021/03/04 07:55:55;;;;;;;124.15;62.70;;;7.70;99.90;;;;;;5074442;28;20482;-78
2021/03/04 07:58:22;;;;;;;112.47;60.20;;;7.80;99.90;;;;;;5074738;28;20131;-77
2021/03/04 08:00:48;;;;;;;108.50;59.33;;;8.00;99.90;;;;;;5074500;28;20086;-78
2021/03/04 08:03:16;;;;;;;108.22;57.60;;;8.10;99.90;;;;;;5075162;28;20145;-77
2021/03/04 08:05:43;;;;;;;110.47;59.53;;;8.20;99.90;;;;;;5074483;28;20127;-77
2021/03/04 08:08:12;;;;;;;116.15;59.50;;;8.30;99.90;;;;;;5075844;28;20112;-78
2021/03/04 08:10:53;;;;;;;112.20;58.75;;;8.40;99.90;;;;;;5074977;28;20049;-77
2021/03/04 08:13:29;;;;;;;107.03;57.33;;;8.50;99.90;;;;;;5074223;28;20049;-78
2021/03/04 08:15:56;;;;;;;106.22;55.90;;;8.60;99.90;;;;;;5074619;28;20083;-79
2021/03/04 08:18:25;;;;;;;99.68;54.42;;;8.50;99.90;;;;;;5075229;28;20044;-77
2021/03/04 08:20:53;;;;;;;107.72;57.78;;;8.50;99.90;;;;;;5074118;28;20515;-78
2021/03/04 08:23:22;;;;;;;101.75;55.10;;;8.50;99.90;;;;;;5074331;28;20064;-78
2021/03/04 08:25:49;;;;;;;100.05;54.72;;;8.60;99.90;;;;;;5074311;28;20044;-77
2021/03/04 08:28:22;;;;;;;98.97;53.70;;;8.60;99.90;;;;;;5074626;28;20083;-77
2021/03/04 08:30:49;;;;;;;101.07;54.95;;;8.70;99.90;;;;;;5075231;28;20095;-77
2021/03/04 08:33:15;;;;;;;102.30;54.78;;;8.70;99.90;;;;;;5073996;28;20084;-78
2021/03/04 08:35:45;;;;;;;104.07;56.58;;;8.80;99.90;;;;;;5060856;28;20080;-78
2021/03/04 08:38:13;;;;;;;102.22;55.70;;;8.80;99.90;;;;;;5055137;28;20049;-78
2021/03/04 08:40:43;;;;;;;105.55;54.65;;;8.80;99.90;;;;;;5056080;28;20499;-78
2021/03/04 08:43:14;;;;;;;98.22;54.17;;;8.80;99.90;;;;;;5055846;28;20085;-78
2021/03/04 08:45:41;;;;;;;104.45;56.17;;;8.90;99.90;;;;;;5054058;28;20172;-77
2021/03/04 08:48:09;;;;;;;107.18;59.97;;;8.80;99.90;;;;;;5054595;28;20526;-77
2021/03/04 08:50:38;;;;;;;100.65;53.90;;;8.90;99.90;;;;;;5057485;28;20088;-76
2021/03/04 08:53:11;;;;;;;107.45;55.83;;;9.00;99.90;;;;;;5055023;28;20084;-77
2021/03/04 08:55:44;;;;;;;105.47;54.67;;;9.10;99.90;;;;;;5052189;28;20080;-78
2021/03/04 08:58:13;;;;;;;106.93;54.67;;;9.10;99.90;;;;;;5054284;28;20056;-79
2021/03/04 09:00:39;;;;;;;96.65;54.45;;;9.20;99.90;;;;;;5093259;22;20045;-80
2021/03/04 09:03:10;;;;;;;103.63;55.85;;;9.20;99.90;;;;;;5073778;28;20052;-79
2021/03/04 09:05:38;;;;;;;96.38;52.15;;;9.30;99.90;;;;;;5065108;28;20513;-77
2021/03/04 09:08:10;;;;;;;103.85;53.13;;;9.40;99.90;;;;;;5068907;28;20037;-79
2021/03/04 09:10:49;;;;;;;98.38;53.40;;;9.40;99.90;;;;;;5071982;28;20052;-78
2021/03/04 09:13:24;;;;;;;94.38;51.78;;;9.50;99.90;;;;;;5065611;28;20045;-78
2021/03/04 09:15:53;;;;;;;100.70;53.92;;;9.50;99.90;;;;;;5064983;28;20067;-79
2021/03/04 09:18:20;;;;;;;97.55;52.22;;;9.40;99.90;;;;;;5065560;28;20059;-79
2021/03/04 09:20:48;;;;;;;81.20;46.92;;;9.30;99.90;;;;;;5065222;28;20076;-78
2021/03/04 09:23:16;;;;;;;83.80;47.67;;;9.20;99.90;;;;;;5067218;28;20048;-79
2021/03/04 09:25:44;;;;;;;102.47;51.75;;;9.10;99.90;;;;;;5064062;28;20099;-79
2021/03/04 09:28:14;;;;;;;83.22;44.88;;;9.10;99.90;;;;;;5065281;28;20049;-78
2021/03/04 09:30:40;;;;;;;75.00;43.42;;;9.00;99.90;;;;;;5065608;28;20075;-79
2021/03/04 09:33:16;;;;;;;98.88;47.28;;;9.00;99.90;;;;;;5065620;28;20053;-81
2021/03/04 09:35:57;;;;;;;76.10;44.92;;;9.20;99.90;;;;;;5061822;28;20519;-80
2021/03/04 09:38:25;;;;;;;81.00;46.35;;;9.30;99.90;;;;;;5062854;28;20076;-80
2021/03/04 09:40:52;;;;;;;70.97;42.00;;;9.40;99.90;;;;;;5066180;28;20138;-81
2021/03/04 09:43:20;;;;;;;62.05;37.55;;;9.60;99.90;;;;;;5060114;28;20049;-81
2021/03/04 09:45:48;;;;;;;45.95;30.02;;;9.80;99.90;;;;;;5058658;28;20045;-80
2021/03/04 09:48:15;;;;;;;53.45;33.78;;;9.90;99.90;;;;;;5060139;28;20052;-79
2021/03/04 09:50:51;;;;;;;48.75;32.28;;;10.00;99.90;;;;;;5059702;28;20060;-79
2021/03/04 09:53:18;;;;;;;48.92;31.05;;;10.10;99.90;;;;;;5063441;28;20079;-80
2021/03/04 09:55:46;;;;;;;50.17;31.52;;;10.10;99.90;;;;;;5062742;28;20053;-79
2021/03/04 09:58:15;;;;;;;50.95;33.53;;;10.20;99.90;;;;;;5065610;28;20029;-80
2021/03/04 10:00:42;;;;;;;51.88;33.78;;;10.20;99.90;;;;;;5062814;28;20075;-80
2021/03/04 10:03:11;;;;;;;50.50;32.78;;;10.10;99.90;;;;;;5063976;28;20106;-80
2021/03/04 10:05:46;;;;;;;61.95;35.25;;;10.10;99.90;;;;;;5063767;28;20049;-80
2021/03/04 10:08:14;;;;;;;52.08;33.30;;;10.10;99.90;;;;;;5046207;28;20053;-80
2021/03/04 10:10:41;;;;;;;49.72;31.00;;;10.20;99.90;;;;;;5043400;28;20614;-79
2021/03/04 10:13:08;;;;;;;48.35;31.15;;;10.30;99.90;;;;;;5042928;28;20046;-79
2021/03/04 10:15:37;;;;;;;48.42;30.85;;;10.30;99.90;;;;;;5043596;28;20072;-79
2021/03/04 10:18:07;;;;;;;44.83;30.00;;;10.30;99.90;;;;;;5062667;28;20068;-80
2021/03/04 10:20:34;;;;;;;46.63;31.27;;;10.30;99.90;;;;;;5043955;28;20050;-80
2021/03/04 10:23:01;;;;;;;48.28;30.80;;;10.20;99.90;;;;;;5045001;28;20081;-81
2021/03/04 10:25:27;;;;;;;46.55;30.92;;;10.20;99.90;;;;;;5046930;28;20125;-78
2021/03/04 10:27:55;;;;;;;48.88;30.35;;;10.10;99.90;;;;;;5043971;28;20064;-80
2021/03/04 10:30:23;;;;;;;51.90;31.65;;;9.90;99.90;;;;;;5042590;28;20081;-79
2021/03/04 10:32:49;;;;;;;51.53;32.53;;;9.70;99.90;;;;;;5043574;28;20045;-79
2021/03/04 10:35:16;;;;;;;52.13;33.30;;;9.70;99.90;;;;;;5052884;28;20044;-79
2021/03/04 10:37:44;;;;;;;48.60;31.90;;;9.70;99.90;;;;;;5064888;28;20060;-79
2021/03/04 10:40:13;;;;;;;45.70;30.55;;;9.70;99.90;;;;;;5062728;28;20045;-81
2021/03/04 10:42:39;;;;;;;51.53;31.45;;;9.80;99.90;;;;;;5065048;28;20052;-80
2021/03/04 10:45:08;;;;;;;49.45;31.92;;;9.70;99.90;;;;;;5065739;28;20052;-79
2021/03/04 10:47:36;;;;;;;59.92;32.25;;;9.80;99.90;;;;;;5064218;28;20076;-79
2021/03/04 10:50:04;;;;;;;51.42;32.50;;;9.80;99.90;;;;;;5065528;28;20052;-80
2021/03/04 10:52:30;;;;;;;58.35;35.95;;;9.80;99.90;;;;;;5066486;28;20415;-79
2021/03/04 10:54:56;;;;;;;58.83;36.10;;;9.60;99.90;;;;;;5065557;28;20048;-78
2021/03/04 10:57:23;;;;;;;54.22;33.95;;;9.60;99.90;;;;;;5063868;28;20060;-79
2021/03/04 10:59:50;;;;;;;51.15;34.05;;;9.60;99.90;;;;;;5064662;28;20045;-80
2021/03/04 11:02:16;;;;;;;51.85;32.53;;;9.60;99.90;;;;;;5065655;28;20045;-79
2021/03/04 11:04:43;;;;;;;46.25;30.05;;;9.60;99.90;;;;;;5065290;28;20228;-80
2021/03/04 11:07:10;;;;;;;48.92;32.80;;;9.60;99.90;;;;;;5064172;28;20100;-80
2021/03/04 11:09:36;;;;;;;45.40;30.10;;;9.60;99.90;;;;;;5064518;28;20045;-79
2021/03/04 11:12:03;;;;;;;44.90;30.30;;;9.60;99.90;;;;;;5064117;28;20052;-78
2021/03/04 11:14:30;;;;;;;42.17;29.85;;;9.60;99.90;;;;;;5065317;28;20056;-79
2021/03/04 11:16:56;;;;;;;41.88;28.52;;;9.50;99.90;;;;;;5064369;28;20051;-80
2021/03/04 11:19:23;;;;;;;35.78;26.38;;;9.50;99.90;;;;;;5066967;28;20060;-80
2021/03/04 11:21:50;;;;;;;33.88;25.05;;;9.50;99.90;;;;;;5066571;28;20049;-79
2021/03/04 11:24:17;;;;;;;36.47;26.13;;;9.40;99.90;;;;;;5064058;28;20057;-79
2021/03/04 11:26:43;;;;;;;37.63;26.33;;;9.30;99.90;;;;;;5065390;28;20527;-83
2021/03/04 11:29:10;;;;;;;39.03;26.40;;;9.30;99.90;;;;;;5064261;28;20045;-79
2021/03/04 11:31:38;;;;;;;37.63;25.92;;;9.20;99.90;;;;;;5063735;28;20052;-80
2021/03/04 11:34:05;;;;;;;37.00;25.50;;;9.20;99.90;;;;;;5063021;28;20584;-79
2021/03/04 11:36:34;;;;;;;36.92;25.80;;;9.20;99.90;;;;;;5063105;28;20045;-79
2021/03/04 11:39:02;;;;;;;36.60;25.20;;;9.20;99.90;;;;;;5064593;28;20075;-79
2021/03/04 11:41:29;;;;;;;32.78;23.77;;;9.10;99.90;;;;;;5065736;28;20049;-79
2021/03/04 11:43:55;;;;;;;34.85;24.25;;;9.10;99.90;;;;;;5070512;28;20118;-79
2021/03/04 11:46:22;;;;;;;37.67;25.50;;;9.00;99.90;;;;;;5069646;28;20044;-80
2021/03/04 11:48:49;;;;;;;42.00;28.17;;;8.80;99.90;;;;;;5067259;28;20049;-78
2021/03/04 11:51:16;;;;;;;46.45;29.67;;;8.70;99.90;;;;;;5064507;28;20045;-78
2021/03/04 11:53:43;;;;;;;55.25;35.05;;;8.60;99.90;;;;;;5067552;28;20052;-79
2021/03/04 11:56:11;;;;;;;57.58;35.45;;;8.60;99.90;;;;;;5067174;28;20052;-78
2021/03/04 11:58:38;;;;;;;60.22;35.50;;;8.50;99.90;;;;;;5069168;28;20075;-79
2021/03/04 12:01:07;;;;;;;65.32;37.50;;;8.60;99.90;;;;;;5068233;28;20045;-78
2021/03/04 12:03:34;;;;;;;69.43;38.38;;;8.60;99.90;;;;;;5063436;28;20049;-77
2021/03/04 12:06:00;;;;;;;71.57;41.97;;;8.60;99.90;;;;;;5062665;28;20053;-77
2021/03/04 12:08:26;;;;;;;75.47;40.92;;;8.60;99.90;;;;;;5065513;28;20400;-80
2021/03/04 12:10:53;;;;;;;75.95;42.38;;;8.50;99.90;;;;;;5063215;28;20087;-79
2021/03/04 12:13:20;;;;;;;75.50;42.30;;;8.50;99.90;;;;;;5065450;28;20052;-79
2021/03/04 12:15:47;;;;;;;77.63;41.95;;;8.50;99.90;;;;;;5067346;28;20045;-80
2021/03/04 12:18:13;;;;;;;70.25;40.50;;;8.50;99.90;;;;;;5068243;28;20053;-80
2021/03/04 12:20:40;;;;;;;70.43;39.55;;;8.40;99.90;;;;;;5067695;28;20080;-80
2021/03/04 12:23:07;;;;;;;69.45;39.15;;;8.30;99.90;;;;;;5067518;28;20049;-79
2021/03/04 12:25:35;;;;;;;71.18;41.08;;;8.30;99.90;;;;;;5066969;28;20061;-78
2021/03/04 12:28:02;;;;;;;63.42;37.17;;;8.20;99.90;;;;;;5067540;28;20176;-79
2021/03/04 12:30:29;;;;;;;48.83;29.98;;;8.20;99.90;;;;;;5067622;28;20501;-80
2021/03/04 12:32:56;;;;;;;47.40;27.38;;;8.20;99.90;;;;;;5067643;28;20049;-80
2021/03/04 12:35:22;;;;;;;41.00;27.55;;;8.10;99.90;;;;;;5067577;28;20048;-79
2021/03/04 12:37:49;;;;;;;39.65;26.42;;;8.10;99.90;;;;;;5066159;28;20052;-78
2021/03/04 12:40:16;;;;;;;37.42;24.95;;;8.10;99.90;;;;;;5066241;28;20045;-78